createdAt,value
2023-12-14T00:03:16.946Z,3.235
2023-12-14T00:18:59.558Z,3.235
2023-12-14T00:34:42.440Z,3.239
2023-12-14T00:50:24.927Z,3.235
2023-12-14T01:06:07.519Z,3.234
2023-12-14T01:21:50.033Z,3.234
2023-12-14T01:37:32.461Z,3.236
2023-12-14T01:53:14.911Z,3.234
2023-12-14T02:08:57.344Z,3.232
2023-12-14T02:24:40.031Z,3.231
2023-12-14T02:40:22.626Z,3.231
2023-12-14T02:56:05.800Z,3.232
2023-12-14T03:11:48.368Z,3.231
2023-12-14T03:27:31.093Z,3.231
2023-12-14T03:43:13.686Z,3.231
2023-12-14T03:58:56.023Z,3.231
2023-12-14T04:14:39.283Z,3.231
2023-12-14T04:30:22.025Z,3.229
2023-12-14T04:46:04.934Z,3.229
2023-12-14T05:01:47.710Z,3.229
2023-12-14T05:17:30.178Z,3.231
2023-12-14T05:33:13.043Z,3.235
2023-12-14T05:48:55.431Z,3.231
2023-12-14T06:04:38.319Z,3.231
2023-12-14T06:20:20.869Z,3.231
2023-12-14T06:36:03.215Z,3.231
2023-12-14T06:51:45.886Z,3.229
2023-12-14T07:07:28.769Z,3.229
2023-12-14T07:23:11.371Z,3.229
2023-12-14T07:38:54.423Z,3.229
2023-12-14T07:54:37.498Z,3.229
2023-12-14T08:10:20.153Z,3.229
2023-12-14T08:26:02.814Z,3.229
2023-12-14T08:41:45.583Z,3.229
2023-12-14T08:57:27.962Z,3.229
2023-12-14T09:13:10.431Z,3.229
2023-12-14T09:28:52.993Z,3.236
2023-12-14T09:44:35.765Z,3.238
2023-12-14T10:00:18.088Z,3.236
2023-12-14T10:16:01.343Z,3.241
2023-12-14T10:31:44.057Z,3.239
2023-12-14T10:47:26.654Z,3.243
2023-12-14T11:03:09.645Z,3.252
2023-12-14T11:18:51.901Z,3.249
2023-12-14T11:34:35.360Z,3.253
2023-12-14T11:50:17.721Z,3.261
2023-12-14T12:06:00.844Z,3.263
2023-12-14T12:21:43.293Z,3.254
2023-12-14T12:37:25.912Z,3.252
2023-12-14T12:53:08.663Z,3.247
2023-12-14T13:08:51.041Z,3.246
2023-12-14T13:24:33.688Z,3.246
2023-12-14T13:40:16.682Z,3.243
2023-12-14T13:55:59.519Z,3.242
2023-12-14T14:11:42.022Z,3.241
2023-12-14T14:27:24.539Z,3.238
2023-12-14T14:43:07.720Z,3.238
2023-12-14T14:58:50.020Z,3.236
2023-12-14T15:14:32.722Z,3.235
2023-12-14T15:30:15.806Z,3.235
2023-12-14T15:45:59.135Z,3.235
2023-12-14T16:01:41.774Z,3.232
2023-12-14T16:17:25.119Z,3.232
2023-12-14T16:18:12.303Z,3.227
2023-12-14T16:33:54.697Z,3.231
2023-12-14T16:49:37.293Z,3.231
2023-12-14T17:05:19.878Z,3.231
2023-12-14T17:21:02.915Z,3.229
2023-12-14T17:36:45.680Z,3.229
2023-12-14T17:52:28.642Z,3.228
2023-12-14T18:08:11.546Z,3.228
2023-12-14T18:23:54.819Z,3.229
2023-12-14T18:39:37.360Z,3.231
2023-12-14T18:55:20.385Z,3.228
2023-12-14T19:11:02.842Z,3.227
2023-12-14T19:26:45.853Z,3.227
2023-12-14T19:42:28.291Z,3.225
2023-12-14T19:58:10.602Z,3.225
2023-12-14T20:13:53.026Z,3.225
2023-12-14T20:29:35.797Z,3.225
2023-12-14T20:45:18.157Z,3.224
2023-12-14T21:01:00.697Z,3.223
2023-12-14T21:16:43.874Z,3.223
2023-12-14T21:32:26.935Z,3.223
2023-12-14T21:48:09.544Z,3.223
2023-12-14T22:03:52.204Z,3.224
2023-12-14T22:19:34.790Z,3.223
2023-12-14T22:35:17.120Z,3.223
2023-12-14T22:51:00.347Z,3.223
2023-12-14T23:06:42.885Z,3.221
2023-12-14T23:22:26.188Z,3.223
2023-12-14T23:38:08.976Z,3.221
2023-12-14T23:53:51.512Z,3.221
